createdAt,value
2018-12-17T00:00:58.066Z,19.60
2018-12-17T00:06:01.650Z,19.00
2018-12-17T00:11:05.032Z,21.00
2018-12-17T00:16:08.336Z,19.50
2018-12-17T00:21:11.633Z,18.75
2018-12-17T00:26:14.932Z,19.25
2018-12-17T00:31:18.249Z,20.25
2018-12-17T00:36:21.545Z,16.80
2018-12-17T00:41:24.854Z,19.00
2018-12-17T00:46:28.168Z,19.25
2018-12-17T00:51:31.545Z,18.75
2018-12-17T00:56:34.861Z,19.50
2018-12-17T01:01:38.162Z,19.80
2018-12-17T01:06:41.477Z,17.40
2018-12-17T01:11:44.785Z,16.20
2018-12-17T01:16:48.081Z,17.00
2018-12-17T01:21:51.463Z,16.50
2018-12-17T01:26:54.755Z,18.25
2018-12-17T01:31:58.050Z,17.00
2018-12-17T01:37:01.342Z,17.00
2018-12-17T01:42:04.642Z,19.75
2018-12-17T01:47:07.970Z,15.50
2018-12-17T01:52:11.273Z,15.00
2018-12-17T01:57:14.654Z,16.40
2018-12-17T02:02:17.954Z,14.00
2018-12-17T02:07:21.245Z,15.00
2018-12-17T02:12:24.562Z,14.60
2018-12-17T02:17:27.866Z,16.50
2018-12-17T02:22:31.258Z,12.00
2018-12-17T02:27:34.573Z,14.25
2018-12-17T02:32:37.922Z,15.60
2018-12-17T02:37:41.243Z,14.25
2018-12-17T02:42:44.545Z,13.75
2018-12-17T02:47:47.837Z,15.75
2018-12-17T02:52:51.134Z,12.00
2018-12-17T02:57:54.455Z,17.40
2018-12-17T03:02:57.762Z,15.80
2018-12-17T03:08:01.145Z,12.75
2018-12-17T03:13:04.458Z,12.25
2018-12-17T03:18:07.766Z,13.25
2018-12-17T03:23:11.072Z,15.00
2018-12-17T03:28:14.369Z,14.75
2018-12-17T03:33:17.667Z,13.00
2018-12-17T03:38:20.970Z,13.60
2018-12-17T03:43:24.304Z,14.00
2018-12-17T03:48:27.596Z,13.20
2018-12-17T03:53:30.893Z,12.80
2018-12-17T03:58:34.193Z,12.00
2018-12-17T04:03:37.649Z,14.50
2018-12-17T04:08:40.958Z,10.80
2018-12-17T04:13:44.254Z,10.50
2018-12-17T04:18:47.560Z,14.00
2018-12-17T04:23:50.983Z,13.60
2018-12-17T04:28:54.285Z,12.50
2018-12-17T04:33:57.605Z,10.00
2018-12-17T04:39:00.921Z,13.20
2018-12-17T04:44:04.221Z,10.00
2018-12-17T04:49:07.534Z,13.75
2018-12-17T04:54:10.881Z,11.00
2018-12-17T04:59:14.824Z,13.00
2018-12-17T05:04:18.608Z,11.75
2018-12-17T05:09:21.960Z,10.80
2018-12-17T05:14:25.253Z,10.00
2018-12-17T05:19:28.558Z,11.25
2018-12-17T05:24:31.917Z,9.00
2018-12-17T05:29:35.233Z,10.00
2018-12-17T05:34:38.549Z,10.00
2018-12-17T05:39:41.919Z,12.75
2018-12-17T05:44:45.218Z,9.75
2018-12-17T05:49:48.521Z,12.50
2018-12-17T05:54:51.878Z,12.25
2018-12-17T05:59:55.182Z,12.75
2018-12-17T06:04:58.473Z,10.00
2018-12-17T06:10:01.795Z,12.00
2018-12-17T06:15:05.805Z,9.80
2018-12-17T06:20:09.097Z,9.00
2018-12-17T06:25:12.390Z,9.20
2018-12-17T06:30:15.685Z,11.40
2018-12-17T06:35:18.979Z,11.00
2018-12-17T06:40:22.293Z,12.80
2018-12-17T06:45:25.593Z,10.80
2018-12-17T06:50:28.881Z,8.00
2018-12-17T06:55:32.177Z,9.00
2018-12-17T07:00:35.465Z,9.00
2018-12-17T07:05:38.749Z,8.25
2018-12-17T07:10:42.053Z,11.25
2018-12-17T07:15:45.374Z,9.20
2018-12-17T07:20:48.666Z,13.25
2018-12-17T07:25:51.949Z,8.00
2018-12-17T07:30:55.245Z,10.00
2018-12-17T07:35:58.538Z,8.20
2018-12-17T07:41:02.209Z,9.20
2018-12-17T07:46:05.499Z,10.00
2018-12-17T07:51:08.791Z,10.00
2018-12-17T07:56:12.077Z,9.00
2018-12-17T08:01:15.373Z,9.25
2018-12-17T08:06:18.670Z,9.00
2018-12-17T08:11:21.960Z,8.60
2018-12-17T08:16:25.269Z,11.75
2018-12-17T08:21:28.581Z,25.00
2018-12-17T08:26:31.898Z,25.80
2018-12-17T08:31:35.224Z,34.00
2018-12-17T08:36:38.549Z,28.60
2018-12-17T08:41:41.869Z,28.00
2018-12-17T08:46:45.175Z,26.25
2018-12-17T08:51:48.813Z,22.75
2018-12-17T08:56:52.113Z,20.25
2018-12-17T09:01:55.419Z,17.00
2018-12-17T09:06:58.714Z,14.00
2018-12-17T09:12:02.034Z,13.20
2018-12-17T09:17:05.336Z,11.40
2018-12-17T09:22:08.642Z,10.00
2018-12-17T09:27:12.022Z,8.50
2018-12-17T09:32:15.316Z,9.00
2018-12-17T09:37:18.647Z,8.00
2018-12-17T09:42:21.947Z,10.40
2018-12-17T09:47:25.229Z,8.00
2018-12-17T09:52:28.524Z,9.00
2018-12-17T09:57:31.841Z,7.50
2018-12-17T10:02:35.128Z,8.25
2018-12-17T10:07:38.417Z,8.00
2018-12-17T10:12:41.753Z,8.00
2018-12-17T10:17:45.040Z,6.75
2018-12-17T10:22:48.357Z,7.00
2018-12-17T10:27:51.655Z,8.75
2018-12-17T10:32:54.977Z,6.60
2018-12-17T10:37:58.418Z,7.40
2018-12-17T10:43:01.721Z,9.00
2018-12-17T10:48:05.039Z,10.00
2018-12-17T10:53:08.352Z,11.75
2018-12-17T10:58:11.662Z,12.80
2018-12-17T11:08:33.455Z,13.80
2018-12-17T11:13:36.897Z,19.25
2018-12-17T11:18:40.220Z,16.75
2018-12-17T11:23:43.546Z,17.25
2018-12-17T11:28:46.866Z,14.20
2018-12-17T11:33:50.246Z,18.75
2018-12-17T11:38:53.553Z,13.75
2018-12-17T11:43:56.861Z,13.80
2018-12-17T11:49:00.185Z,13.50
2018-12-17T11:54:03.498Z,14.00
2018-12-17T11:59:06.844Z,12.80
2018-12-17T12:04:10.249Z,13.40
2018-12-17T12:09:18.549Z,12.00
2018-12-17T12:14:22.049Z,14.40
2018-12-17T12:19:25.352Z,13.00
2018-12-17T12:24:28.645Z,14.20
2018-12-17T12:29:31.946Z,9.75
2018-12-17T12:34:35.255Z,12.00
2018-12-17T12:39:38.584Z,12.80
2018-12-17T12:44:41.893Z,10.00
2018-12-17T12:49:45.193Z,9.00
2018-12-17T12:54:48.510Z,12.50
2018-12-17T12:59:51.841Z,12.20
2018-12-17T13:04:55.162Z,11.00
2018-12-17T13:09:58.471Z,8.00
2018-12-17T13:15:01.803Z,11.00
2018-12-17T13:20:07.582Z,9.00
2018-12-17T13:25:24.383Z,9.50
2018-12-17T13:30:27.780Z,8.25
2018-12-17T13:35:31.098Z,12.75
2018-12-17T13:40:34.426Z,8.00
2018-12-17T13:45:37.754Z,5.80
2018-12-17T13:50:41.061Z,5.00
2018-12-17T13:55:44.436Z,5.00
2018-12-17T14:00:47.821Z,3.00
2018-12-17T14:05:51.138Z,5.00
2018-12-17T14:10:54.914Z,5.50
2018-12-17T14:16:03.548Z,7.00
2018-12-17T14:21:13.790Z,6.75
2018-12-17T14:26:17.260Z,8.00
2018-12-17T14:31:20.589Z,9.00
2018-12-17T14:36:23.913Z,7.25
2018-12-17T14:41:27.238Z,7.00
2018-12-17T14:46:34.722Z,9.80
2018-12-17T14:51:38.017Z,9.00
2018-12-17T14:56:41.322Z,7.00
2018-12-17T15:01:44.687Z,19.60
2018-12-17T15:06:48.021Z,35.75
2018-12-17T15:11:51.348Z,34.75
2018-12-17T15:16:54.661Z,39.60
2018-12-17T15:21:57.985Z,34.80
2018-12-17T15:27:01.284Z,30.75
2018-12-17T15:32:04.677Z,31.50
2018-12-17T15:37:07.989Z,31.00
2018-12-17T15:42:11.301Z,31.25
2018-12-17T15:47:14.629Z,30.00
2018-12-17T15:52:17.968Z,30.50
2018-12-17T15:57:21.295Z,26.75
2018-12-17T16:02:24.604Z,25.50
2018-12-17T16:07:27.935Z,26.60
2018-12-17T16:12:31.260Z,27.00
2018-12-17T16:17:34.606Z,25.20
2018-12-17T16:22:37.917Z,27.40
2018-12-17T16:27:41.235Z,25.00
2018-12-17T16:32:44.560Z,28.25
2018-12-17T16:37:47.870Z,24.60
2018-12-17T16:42:51.194Z,23.50
2018-12-17T16:47:55.105Z,25.00
2018-12-17T16:52:58.424Z,21.75
2018-12-17T16:58:01.756Z,23.00
2018-12-17T17:03:05.060Z,24.40
2018-12-17T17:08:08.376Z,21.50
2018-12-17T17:13:11.727Z,28.40
2018-12-17T17:18:15.053Z,25.50
2018-12-17T17:23:18.509Z,21.00
2018-12-17T17:28:21.866Z,22.00
2018-12-17T17:33:25.189Z,35.00
2018-12-17T17:38:28.517Z,43.75
2018-12-17T17:43:31.854Z,44.75
2018-12-17T17:48:35.181Z,49.75
2018-12-17T17:53:38.503Z,41.25
2018-12-17T17:58:41.886Z,43.00
2018-12-17T18:03:45.209Z,47.75
2018-12-17T18:08:48.526Z,44.50
2018-12-17T18:13:51.865Z,45.25
2018-12-17T18:18:55.195Z,44.50
2018-12-17T18:23:58.507Z,48.25
2018-12-17T18:29:02.742Z,37.80
2018-12-17T18:34:06.338Z,43.80
2018-12-17T18:39:09.852Z,35.00
2018-12-17T18:44:13.215Z,35.60
2018-12-17T18:49:16.660Z,39.50
2018-12-17T18:54:20.021Z,36.00
2018-12-17T18:59:23.356Z,34.00
2018-12-17T19:04:26.669Z,32.75
2018-12-17T19:09:30.014Z,33.40
2018-12-17T19:14:33.357Z,34.50
2018-12-17T19:19:36.690Z,33.20
2018-12-17T19:24:40.025Z,37.00
2018-12-17T19:29:43.342Z,37.00
2018-12-17T19:34:46.732Z,32.75
2018-12-17T19:39:50.101Z,38.00
2018-12-17T19:44:53.443Z,36.75
2018-12-17T19:49:56.811Z,32.00
2018-12-17T19:55:00.182Z,27.00
2018-12-17T20:00:03.876Z,30.75
2018-12-17T20:05:07.249Z,32.60
2018-12-17T20:10:14.714Z,30.20
2018-12-17T20:15:18.109Z,30.25
2018-12-17T20:20:21.438Z,27.80
2018-12-17T20:25:24.805Z,32.25
2018-12-17T20:30:28.629Z,30.50
2018-12-17T20:35:31.970Z,28.00
2018-12-17T20:40:35.302Z,29.25
2018-12-17T20:45:38.629Z,27.20
2018-12-17T20:50:41.964Z,26.80
2018-12-17T20:55:45.301Z,33.00
2018-12-17T21:00:48.642Z,26.50
2018-12-17T21:05:51.981Z,26.50
2018-12-17T21:10:55.330Z,26.50
2018-12-17T21:15:58.661Z,28.75
2018-12-17T21:21:02.002Z,26.80
2018-12-17T21:26:05.351Z,27.25
2018-12-17T21:31:08.680Z,30.20
2018-12-17T21:36:12.014Z,27.60
2018-12-17T21:41:15.429Z,23.75
2018-12-17T21:46:18.777Z,20.50
2018-12-17T21:51:22.105Z,25.60
2018-12-17T21:56:25.440Z,22.60
2018-12-17T22:01:28.761Z,23.00
2018-12-17T22:06:32.112Z,28.50
2018-12-17T22:11:35.705Z,23.75
2018-12-17T22:16:39.050Z,20.75
2018-12-17T22:21:42.373Z,24.75
2018-12-17T22:26:45.734Z,23.40
2018-12-17T22:31:49.110Z,21.00
2018-12-17T22:36:52.435Z,21.75
2018-12-17T22:41:55.837Z,20.80
2018-12-17T22:46:59.197Z,21.75
2018-12-17T22:52:02.530Z,21.50
2018-12-17T22:57:05.845Z,22.40
2018-12-17T23:02:09.157Z,22.50
2018-12-17T23:07:12.491Z,16.20
2018-12-17T23:12:27.237Z,19.80
2018-12-17T23:17:39.993Z,20.75
2018-12-17T23:22:43.857Z,19.75
2018-12-17T23:27:50.252Z,17.25
2018-12-17T23:32:53.594Z,17.00
2018-12-17T23:37:56.905Z,19.50
2018-12-17T23:43:00.222Z,18.25
